Portada
METAR-TAF:

METAR-TAF

Aeroports :

Kobe, Japó

latitud: 34-37-58N, longitud: 135-13-26E, altitud: 7 m

Observació

L'informe es va fer fa 49 minuts, a les 07:00 UTC
Vent 14 kt del Oest
Temperatura 13°C
Humitat 35%
Pressió 1016 hPa
Visibilitat 10 km o més
Escasses núvols a una alçada de 3000 ft
Núvols disperses a una alçada de 4000 ft

METAR: RJBE 190700Z 28014KT 9999 FEW030 SCT040 13/M02 Q1016

Hora: 16:49 (07:49 UTC)


TAF: manca

Observacions i pronòstics meteorològics de més de 4000 aeroports (METAR i TAF).

Les estacions disponibles són els punts grocs i vermells al mapa.

Posi el ratolí al punt desitjat per veure el nom de l'estació.

Feu clic per veure les observacions i els pronòstics meteorològics.

Per canviar el mapa: feu clic els botons verds amb una creu de color negre per apropar; al botó verd amb un guió per allunyar la imatge; o en les fletxes verdes per a mapes adjacents.


METAR-TAF: